Time;durP1;ratioP1;P1;durP2;ratioP2;P2;SDS_P1;SDS_P2;PMS_P1;PMS_P2;Temp;Humidity;BMP_temperature;BMP_pressure;BME280_temperature;BME280_humidity;BME280_pressure;Samples;Min_cycle;Max_cycle;Signal;HPM_P1;HPM_P2
2024/02/18 00:00:35;;;;;;;3.80;2.20;;;;;;;5.66;79.53;100384.35;226470;1274;25349;-73
2024/02/18 00:05:37;;;;;;;3.80;2.10;;;;;;;5.64;79.49;100382.25;226484;1273;22535;-72
2024/02/18 00:10:39;;;;;;;3.40;2.10;;;;;;;5.60;79.32;100383.97;226545;1270;22553;-72
2024/02/18 00:15:41;;;;;;;3.60;1.90;;;;;;;5.53;78.87;100395.67;226458;1273;22536;-74
2024/02/18 00:20:43;;;;;;;5.20;2.10;;;;;;;5.47;79.28;100398.98;226484;1270;22558;-73
2024/02/18 00:25:45;;;;;;;3.50;2.30;;;;;;;5.43;79.00;100405.94;226535;1273;22547;-73
2024/02/18 00:30:49;;;;;;;4.40;1.90;;;;;;;5.40;78.63;100408.58;226532;1271;22560;-74
2024/02/18 00:35:51;;;;;;;4.50;2.20;;;;;;;5.36;78.68;100406.76;226540;1274;22595;-73
2024/02/18 00:40:53;;;;;;;3.80;1.90;;;;;;;5.35;78.53;100403.59;226453;1276;25138;-72
2024/02/18 00:45:55;;;;;;;5.10;1.90;;;;;;;5.31;78.81;100412.05;226583;1272;22588;-73
2024/02/18 00:50:57;;;;;;;5.70;2.00;;;;;;;5.28;78.67;100418.73;226642;1270;22553;-73
2024/02/18 00:55:59;;;;;;;4.00;2.10;;;;;;;5.27;78.74;100420.58;226529;1273;22539;-74
2024/02/18 01:01:03;;;;;;;5.20;2.10;;;;;;;5.24;78.31;100421.27;226567;1273;22560;-74
2024/02/18 01:06:05;;;;;;;2.80;1.50;;;;;;;5.23;77.98;100419.81;226593;1273;22604;-73
2024/02/18 01:11:07;;;;;;;3.00;1.50;;;;;;;5.21;77.84;100423.25;226562;1271;25262;-71
2024/02/18 01:16:09;;;;;;;2.80;1.70;;;;;;;5.21;77.70;100427.33;226521;1273;22546;-72
2024/02/18 01:21:11;;;;;;;4.00;1.80;;;;;;;5.21;77.67;100434.27;226491;1273;22543;-73
2024/02/18 01:26:13;;;;;;;5.60;2.00;;;;;;;5.18;77.43;100432.59;226576;1273;23277;-73
2024/02/18 01:31:15;;;;;;;2.20;1.50;;;;;;;5.18;77.41;100433.31;226629;1271;22543;-71
2024/02/18 01:36:17;;;;;;;7.30;2.10;;;;;;;5.17;77.58;100434.10;226628;1273;22553;-72
2024/02/18 01:41:19;;;;;;;4.10;1.70;;;;;;;5.16;77.63;100435.89;226628;1273;23975;-71
2024/02/18 01:46:21;;;;;;;3.80;1.80;;;;;;;5.17;77.79;100434.63;226242;1273;22545;-72
2024/02/18 01:51:23;;;;;;;3.80;2.10;;;;;;;5.17;77.92;100436.00;226526;1252;22545;-72
2024/02/18 01:56:26;;;;;;;4.40;2.10;;;;;;;5.17;77.76;100435.30;226529;1273;22955;-73
2024/02/18 02:01:28;;;;;;;3.80;2.00;;;;;;;5.17;78.02;100436.32;226591;1273;22530;-73
2024/02/18 02:06:30;;;;;;;3.50;2.00;;;;;;;5.18;78.01;100444.11;226499;1272;22889;-73
2024/02/18 02:11:32;;;;;;;4.60;2.40;;;;;;;5.19;78.30;100441.58;226394;1273;237253;-71
2024/02/18 02:16:34;;;;;;;2.90;1.90;;;;;;;5.20;77.96;100450.41;226589;1271;22543;-73
2024/02/18 02:21:36;;;;;;;4.40;2.20;;;;;;;5.19;77.86;100453.61;226546;1273;22558;-73
2024/02/18 02:26:42;;;;;;;2.80;2.20;;;;;;;5.18;77.69;100452.52;226601;1273;23020;-72
2024/02/18 02:31:45;;;;;;;5.50;2.40;;;;;;;5.17;77.21;100454.34;226687;1257;22562;-73
2024/02/18 02:36:47;;;;;;;4.00;2.50;;;;;;;5.15;77.32;100449.25;226588;1270;22583;-73
2024/02/18 02:41:49;;;;;;;4.90;2.80;;;;;;;5.12;77.06;100448.39;226562;1274;22582;-74
2024/02/18 02:46:51;;;;;;;4.10;2.30;;;;;;;5.11;76.35;100446.88;226586;1273;22551;-73
2024/02/18 02:51:53;;;;;;;5.00;2.50;;;;;;;5.09;75.90;100448.62;226531;1271;22552;-73
2024/02/18 02:56:55;;;;;;;4.20;2.50;;;;;;;5.07;75.18;100455.40;226576;1271;22591;-73
2024/02/18 03:01:57;;;;;;;5.90;2.70;;;;;;;5.04;75.20;100458.06;226618;1273;22543;-73
2024/02/18 03:06:59;;;;;;;5.00;2.60;;;;;;;5.02;75.28;100459.81;226637;1273;25327;-71
2024/02/18 03:12:02;;;;;;;3.60;2.50;;;;;;;5.00;75.68;100457.66;226476;1274;22547;-72
2024/02/18 03:17:04;;;;;;;5.40;2.90;;;;;;;5.00;75.53;100457.30;226583;1272;24305;-72
2024/02/18 03:22:06;;;;;;;4.20;2.40;;;;;;;4.99;75.51;100454.45;226582;1271;22587;-73
2024/02/18 03:27:08;;;;;;;6.20;2.60;;;;;;;4.97;75.92;100450.19;226612;1273;22549;-73
2024/02/18 03:32:11;;;;;;;4.10;2.40;;;;;;;4.96;75.62;100454.42;226622;1273;22568;-72
2024/02/18 03:37:12;;;;;;;5.60;2.90;;;;;;;4.96;75.75;100450.97;226662;1271;22598;-73
2024/02/18 03:42:14;;;;;;;7.70;3.00;;;;;;;4.95;75.53;100456.58;226628;1273;22537;-72
2024/02/18 03:47:17;;;;;;;5.00;2.90;;;;;;;4.94;75.45;100455.13;226585;1273;22604;-72
2024/02/18 03:52:19;;;;;;;4.10;2.50;;;;;;;4.91;75.10;100451.34;226478;1276;24214;-72
2024/02/18 03:57:21;;;;;;;6.50;2.80;;;;;;;4.89;75.43;100458.60;226560;1275;22569;-72
2024/02/18 04:02:24;;;;;;;5.40;3.20;;;;;;;4.88;75.53;100458.15;226552;1274;22550;-72
2024/02/18 04:07:26;;;;;;;6.30;3.20;;;;;;;4.86;75.35;100462.66;226543;1273;22543;-73
2024/02/18 04:12:28;;;;;;;5.50;3.10;;;;;;;4.85;75.48;100470.77;226609;1271;22635;-72
2024/02/18 04:17:30;;;;;;;6.10;3.10;;;;;;;4.83;75.31;100471.11;226655;1273;25419;-72
2024/02/18 04:22:33;;;;;;;5.30;3.20;;;;;;;4.80;75.29;100469.23;226649;1273;22570;-72
2024/02/18 04:27:35;;;;;;;4.70;2.60;;;;;;;4.79;75.37;100473.70;226581;1274;22573;-72
2024/02/18 04:32:37;;;;;;;4.70;3.20;;;;;;;4.76;75.03;100468.98;226518;1276;22555;-72
2024/02/18 04:37:39;;;;;;;4.90;3.10;;;;;;;4.73;74.81;100472.91;226613;1272;22552;-72
2024/02/18 04:42:41;;;;;;;4.30;3.50;;;;;;;4.71;74.74;100470.63;226601;1276;22542;-72
2024/02/18 04:47:44;;;;;;;3.90;3.00;;;;;;;4.69;74.83;100470.21;226642;1257;22553;-72
2024/02/18 04:52:46;;;;;;;5.90;3.30;;;;;;;4.67;74.73;100475.22;226633;1271;22551;-72
2024/02/18 04:57:48;;;;;;;6.30;3.50;;;;;;;4.65;74.60;100473.27;226597;1276;22559;-72
2024/02/18 05:02:50;;;;;;;5.00;2.80;;;;;;;4.64;74.39;100468.64;226521;1274;22546;-72
2024/02/18 05:07:52;;;;;;;4.60;2.80;;;;;;;4.65;74.28;100470.16;226622;1276;22680;-73
2024/02/18 05:12:55;;;;;;;6.20;3.00;;;;;;;4.67;74.19;100469.16;226575;1271;22554;-74
2024/02/18 05:17:57;;;;;;;3.80;3.10;;;;;;;4.67;74.02;100469.31;226595;1271;22547;-73
2024/02/18 05:22:59;;;;;;;5.60;3.00;;;;;;;4.68;73.83;100463.84;226553;1268;24251;-73
2024/02/18 05:28:01;;;;;;;3.50;2.80;;;;;;;4.67;74.16;100458.67;226569;1275;22561;-72
2024/02/18 05:33:03;;;;;;;6.60;3.30;;;;;;;4.66;73.97;100459.05;226471;1260;22551;-75
2024/02/18 05:38:06;;;;;;;5.40;3.40;;;;;;;4.66;73.98;100463.47;226462;1275;22569;-73
2024/02/18 05:43:08;;;;;;;4.20;3.20;;;;;;;4.65;73.83;100465.63;226528;1272;22646;-74
2024/02/18 05:48:10;;;;;;;6.80;3.30;;;;;;;4.66;74.21;100475.52;226645;1272;22556;-74
2024/02/18 05:53:12;;;;;;;8.20;3.30;;;;;;;4.65;73.99;100477.80;226557;1274;22558;-72
2024/02/18 05:58:14;;;;;;;4.30;3.00;;;;;;;4.67;73.86;100484.83;226602;1273;22566;-73
2024/02/18 06:03:17;;;;;;;6.40;3.40;;;;;;;4.70;73.90;100484.25;226593;1273;22552;-72
2024/02/18 06:08:19;;;;;;;5.70;3.50;;;;;;;4.71;73.93;100481.05;226633;1272;22646;-72
2024/02/18 06:13:22;;;;;;;5.00;3.40;;;;;;;4.73;73.55;100488.47;226602;1274;22551;-72
2024/02/18 06:18:24;;;;;;;6.10;3.80;;;;;;;4.73;73.76;100489.83;226633;1267;22561;-73
2024/02/18 06:23:26;;;;;;;7.40;4.10;;;;;;;4.73;73.67;100491.55;226619;1274;22554;-73
2024/02/18 06:28:32;;;;;;;5.20;3.80;;;;;;;4.73;73.67;100489.29;226658;1274;24294;-72
2024/02/18 06:33:34;;;;;;;7.80;4.20;;;;;;;4.75;73.85;100495.06;226618;1276;22553;-73
2024/02/18 06:38:40;;;;;;;7.50;4.50;;;;;;;4.79;73.88;100505.45;226613;1276;25227;-73
2024/02/18 06:43:42;;;;;;;7.70;4.90;;;;;;;4.81;73.58;100507.20;226590;1274;22571;-72
2024/02/18 06:48:44;;;;;;;10.10;5.30;;;;;;;4.84;74.09;100508.24;226583;1274;22556;-72
2024/02/18 06:53:46;;;;;;;10.20;5.90;;;;;;;4.88;73.88;100516.16;226609;1274;24380;-73
2024/02/18 06:58:48;;;;;;;9.80;5.80;;;;;;;4.95;73.98;100518.63;226677;1276;25286;-73
2024/02/18 07:03:50;;;;;;;11.80;6.50;;;;;;;5.00;73.84;100519.87;226397;1276;22543;-73
2024/02/18 07:08:52;;;;;;;8.20;5.40;;;;;;;5.04;73.73;100527.07;226607;1274;22640;-72
2024/02/18 07:13:55;;;;;;;6.10;4.70;;;;;;;5.09;73.82;100526.69;226627;1274;23040;-73
2024/02/18 07:18:57;;;;;;;10.90;5.30;;;;;;;5.15;73.78;100524.66;226596;1269;22667;-74
2024/02/18 07:23:59;;;;;;;6.60;4.60;;;;;;;5.24;73.83;100532.95;226560;1273;22542;-73
2024/02/18 07:29:01;;;;;;;5.90;3.80;;;;;;;5.32;73.39;100539.73;226540;1274;22538;-73
2024/02/18 07:34:06;;;;;;;11.40;6.00;;;;;;;5.42;72.95;100537.05;226600;1273;22573;-73
2024/02/18 07:39:09;;;;;;;9.10;5.80;;;;;;;5.53;72.90;100530.77;226692;1274;24284;-74
2024/02/18 07:44:10;;;;;;;12.60;6.00;;;;;;;5.66;72.80;100529.52;226661;1274;22608;-73
2024/02/18 07:49:15;;;;;;;9.00;4.80;;;;;;;5.76;72.80;100526.98;226650;1276;24242;-74
2024/02/18 07:54:17;;;;;;;7.10;5.00;;;;;;;5.86;72.37;100531.98;226441;1274;22539;-73
2024/02/18 07:59:21;;;;;;;8.10;4.20;;;;;;;5.98;72.28;100530.80;226631;1274;22542;-73
2024/02/18 08:04:23;;;;;;;8.00;4.50;;;;;;;6.11;72.32;100534.90;226652;1271;22547;-73
2024/02/18 08:09:25;;;;;;;5.90;3.50;;;;;;;6.18;71.38;100525.59;226710;1274;24295;-73
2024/02/18 08:14:27;;;;;;;7.60;5.00;;;;;;;6.25;71.13;100529.95;226641;1274;22543;-75
2024/02/18 08:19:31;;;;;;;7.20;4.60;;;;;;;6.32;71.22;100537.11;226613;1274;25543;-72
2024/02/18 08:24:33;;;;;;;6.20;4.50;;;;;;;6.44;71.05;100532.67;226610;1274;22536;-72
2024/02/18 08:29:38;;;;;;;6.70;4.30;;;;;;;6.56;70.82;100528.77;226620;1273;22537;-74
2024/02/18 08:34:41;;;;;;;5.80;4.00;;;;;;;6.61;70.30;100528.04;226596;1272;22554;-73
2024/02/18 08:39:43;;;;;;;6.20;3.90;;;;;;;6.69;70.45;100526.00;226601;1274;22569;-74
2024/02/18 08:44:45;;;;;;;9.10;4.20;;;;;;;6.76;69.78;100526.14;226634;1274;22542;-74
2024/02/18 08:49:47;;;;;;;7.40;4.30;;;;;;;6.81;69.32;100529.23;226644;1275;22554;-74
2024/02/18 08:54:49;;;;;;;5.60;3.90;;;;;;;6.82;69.48;100525.33;226608;1274;22577;-73
2024/02/18 08:59:52;;;;;;;7.40;4.30;;;;;;;6.86;69.30;100528.35;226596;1274;22589;-73
2024/02/18 09:04:54;;;;;;;5.40;4.10;;;;;;;6.92;69.27;100529.57;226606;1274;25380;-72
2024/02/18 09:09:56;;;;;;;5.70;4.30;;;;;;;6.99;69.34;100521.66;226472;1274;22580;-73
2024/02/18 09:14:58;;;;;;;7.20;4.70;;;;;;;6.99;69.13;100517.10;226723;1271;22555;-73
2024/02/18 09:20:00;;;;;;;7.40;4.80;;;;;;;7.06;68.89;100516.52;226707;1274;22546;-73
2024/02/18 09:25:03;;;;;;;5.70;4.50;;;;;;;7.11;68.88;100510.75;226626;1272;22655;-74
2024/02/18 09:30:06;;;;;;;5.40;4.20;;;;;;;7.16;68.57;100510.71;226655;1271;22556;-73
2024/02/18 09:35:08;;;;;;;8.20;4.70;;;;;;;7.26;68.97;100514.25;226688;1273;22547;-73
2024/02/18 09:40:11;;;;;;;7.90;4.70;;;;;;;7.33;68.50;100517.83;226598;1274;22561;-73
2024/02/18 09:45:14;;;;;;;5.60;4.60;;;;;;;7.36;68.67;100511.69;226614;1273;22589;-73
2024/02/18 09:50:17;;;;;;;6.90;4.80;;;;;;;7.36;68.12;100510.45;226485;1274;23262;-73
2024/02/18 09:55:19;;;;;;;6.40;5.00;;;;;;;7.36;68.08;100502.20;226647;1271;22634;-72
2024/02/18 10:00:22;;;;;;;6.40;5.10;;;;;;;7.41;67.85;100495.81;226636;1272;22567;-73
2024/02/18 10:05:24;;;;;;;6.50;4.80;;;;;;;7.53;67.94;100493.48;226663;1275;22574;-73
2024/02/18 10:10:26;;;;;;;5.90;4.80;;;;;;;7.65;67.59;100480.67;226577;1274;22584;-73
2024/02/18 10:15:28;;;;;;;7.40;5.30;;;;;;;7.78;67.28;100471.02;226585;1276;22533;-72
2024/02/18 10:20:30;;;;;;;5.50;4.70;;;;;;;7.94;67.11;100466.30;226575;1274;22577;-72
2024/02/18 10:25:32;;;;;;;6.30;5.00;;;;;;;8.19;66.86;100462.10;226608;1271;22551;-73
2024/02/18 10:30:36;;;;;;;7.90;4.90;;;;;;;8.43;66.30;100460.88;226641;1272;22556;-73
2024/02/18 10:35:38;;;;;;;7.00;5.40;;;;;;;8.46;65.04;100463.08;226601;1271;22544;-74
2024/02/18 10:40:45;;;;;;;7.40;5.50;;;;;;;8.41;64.75;100461.59;226567;1273;23772;-73
2024/02/18 10:45:50;;;;;;;10.10;5.40;;;;;;;8.30;64.22;100455.68;226611;1271;22560;-73
2024/02/18 10:50:52;;;;;;;8.10;5.80;;;;;;;8.27;64.71;100449.59;226557;1271;22561;-73
2024/02/18 10:56:02;;;;;;;7.90;5.80;;;;;;;8.52;65.42;100453.65;226682;1276;22559;-73
2024/02/18 11:01:08;;;;;;;7.70;6.50;;;;;;;8.56;64.16;100438.70;226655;1271;23309;-73
2024/02/18 11:06:11;;;;;;;9.30;7.50;;;;;;;8.63;64.35;100425.23;226623;1275;22562;-74
2024/02/18 11:11:14;;;;;;;8.50;7.10;;;;;;;8.90;64.86;100414.05;226603;1273;25416;-73
2024/02/18 11:16:17;;;;;;;9.40;7.30;;;;;;;9.16;64.80;100401.10;226574;1274;22563;-73
2024/02/18 11:21:20;;;;;;;9.10;7.00;;;;;;;9.16;63.72;100396.72;226634;1271;22569;-73
2024/02/18 11:26:22;;;;;;;8.90;6.20;;;;;;;9.07;63.27;100390.13;226453;1271;25233;-74
2024/02/18 11:31:26;;;;;;;9.00;6.70;;;;;;;9.05;63.76;100381.98;226642;1270;22656;-73
2024/02/18 11:36:28;;;;;;;8.10;6.40;;;;;;;9.06;63.65;100374.94;226580;1273;22558;-73
2024/02/18 11:41:37;;;;;;;8.50;6.60;;;;;;;9.09;63.53;100360.80;226581;1274;22556;-74
2024/02/18 11:46:41;;;;;;;10.40;7.70;;;;;;;9.07;63.45;100349.02;226651;1273;22550;-73
2024/02/18 11:51:43;;;;;;;8.50;6.80;;;;;;;9.10;63.44;100339.79;226612;1272;22550;-74
2024/02/18 11:56:46;;;;;;;9.30;7.10;;;;;;;9.15;63.46;100331.80;226629;1269;22560;-73
2024/02/18 12:01:48;;;;;;;9.70;8.00;;;;;;;9.09;63.08;100319.83;226629;1273;22579;-73
2024/02/18 12:06:50;;;;;;;10.10;8.00;;;;;;;9.01;62.61;100308.11;226539;1275;22553;-73
2024/02/18 12:11:52;;;;;;;9.90;7.80;;;;;;;8.89;62.91;100305.21;226467;1275;22546;-73
2024/02/18 12:16:55;;;;;;;9.90;8.30;;;;;;;8.73;62.80;100300.33;226613;1273;23107;-73
2024/02/18 12:21:58;;;;;;;10.60;8.30;;;;;;;8.61;63.05;100297.21;226576;1273;22573;-73
2024/02/18 12:27:03;;;;;;;10.90;8.10;;;;;;;8.45;63.00;100292.16;226544;1276;22554;-73
2024/02/18 12:32:06;;;;;;;9.90;8.10;;;;;;;8.48;63.08;100287.45;226591;1272;22568;-74
2024/02/18 12:37:09;;;;;;;10.60;7.70;;;;;;;8.50;63.31;100277.33;226441;1276;25756;-73
2024/02/18 12:42:31;;;;;;;10.70;8.20;;;;;;;8.52;63.11;100270.78;226602;1276;22688;-73
2024/02/18 12:47:35;;;;;;;11.30;8.90;;;;;;;8.63;63.42;100261.58;226449;1274;22568;-75
2024/02/18 12:52:42;;;;;;;11.30;9.10;;;;;;;8.66;63.36;100260.72;226605;1273;22557;-74
2024/02/18 12:57:44;;;;;;;9.90;8.70;;;;;;;8.72;63.37;100245.77;226619;1273;22561;-74
2024/02/18 13:02:54;;;;;;;12.50;8.70;;;;;;;8.81;63.44;100238.43;226599;1273;22562;-73
2024/02/18 13:07:58;;;;;;;12.40;9.30;;;;;;;8.86;63.26;100235.72;226579;1274;22650;-73
2024/02/18 13:13:01;;;;;;;10.70;9.00;;;;;;;8.90;62.86;100229.08;226547;1274;22553;-73
2024/02/18 13:18:03;;;;;;;12.60;9.30;;;;;;;8.86;62.84;100219.73;226564;1276;22697;-73
2024/02/18 13:23:05;;;;;;;12.20;9.40;;;;;;;8.87;62.90;100210.72;226552;1273;22560;-74
2024/02/18 13:28:07;;;;;;;14.00;9.60;;;;;;;8.85;63.10;100208.76;226540;1276;25070;-73
2024/02/18 13:33:10;;;;;;;11.80;9.00;;;;;;;8.76;62.73;100205.41;226573;1276;23036;-73
2024/02/18 13:38:12;;;;;;;12.50;9.60;;;;;;;8.67;63.15;100192.80;226600;1276;22554;-73
2024/02/18 13:43:15;;;;;;;12.80;9.50;;;;;;;8.67;62.98;100186.31;226539;1274;24298;-73
2024/02/18 13:48:17;;;;;;;13.90;9.90;;;;;;;8.67;62.90;100186.84;226584;1271;22545;-74
2024/02/18 13:53:19;;;;;;;14.00;10.00;;;;;;;8.61;62.92;100183.41;226581;1271;23043;-73
2024/02/18 13:58:21;;;;;;;14.60;10.00;;;;;;;8.56;63.16;100176.16;226607;1274;22566;-73
2024/02/18 14:03:23;;;;;;;12.20;9.80;;;;;;;8.57;62.98;100174.13;226592;1273;22585;-72
2024/02/18 14:08:25;;;;;;;12.20;9.70;;;;;;;8.65;63.48;100170.06;226588;1264;22587;-73
2024/02/18 14:13:29;;;;;;;14.50;10.50;;;;;;;8.81;63.36;100167.45;226369;1276;196593;-74
2024/02/18 14:18:31;;;;;;;13.50;9.60;;;;;;;8.93;63.81;100160.39;226580;1273;23289;-73
2024/02/18 14:23:34;;;;;;;16.10;10.60;;;;;;;8.96;63.43;100154.51;226626;1273;22536;-72
2024/02/18 14:28:36;;;;;;;11.20;9.00;;;;;;;9.04;63.54;100152.29;226473;1276;22587;-74
2024/02/18 14:33:38;;;;;;;13.70;10.40;;;;;;;9.10;62.93;100143.96;226607;1276;22567;-75
2024/02/18 14:38:40;;;;;;;17.50;11.10;;;;;;;9.07;63.17;100135.52;226571;1273;22653;-72
2024/02/18 14:43:42;;;;;;;17.30;11.80;;;;;;;9.03;62.59;100130.11;226613;1270;22559;-73
2024/02/18 14:48:44;;;;;;;13.60;10.80;;;;;;;8.95;62.76;100128.17;226453;1259;22546;-73
2024/02/18 14:53:49;;;;;;;14.00;10.40;;;;;;;8.81;63.18;100121.06;226574;1276;22576;-73
2024/02/18 14:58:52;;;;;;;14.40;10.80;;;;;;;8.66;63.12;100120.95;226542;1272;22546;-73
2024/02/18 15:03:54;;;;;;;16.10;11.20;;;;;;;8.53;63.40;100121.81;226566;1273;22570;-73
2024/02/18 15:08:56;;;;;;;15.10;10.70;;;;;;;8.40;63.89;100117.17;226528;1272;24280;-74
2024/02/18 15:14:00;;;;;;;15.00;11.20;;;;;;;8.34;64.13;100110.94;226506;1273;22879;-73
2024/02/18 15:19:03;;;;;;;17.30;10.70;;;;;;;8.27;63.85;100107.33;226558;1273;22602;-73
2024/02/18 15:24:05;;;;;;;13.00;9.80;;;;;;;8.22;64.29;100094.77;226502;1273;22553;-74
2024/02/18 15:29:09;;;;;;;15.10;10.60;;;;;;;8.12;63.73;100086.23;226496;1275;22558;-73
2024/02/18 15:34:14;;;;;;;13.60;10.50;;;;;;;7.95;64.45;100087.81;226518;1260;25495;-74
2024/02/18 15:39:17;;;;;;;13.50;9.90;;;;;;;7.72;64.69;100083.36;226545;1276;22579;-73
2024/02/18 15:44:19;;;;;;;16.80;10.40;;;;;;;7.47;65.22;100078.98;226501;1271;22562;-74
2024/02/18 15:49:21;;;;;;;12.70;10.70;;;;;;;7.17;65.20;100078.49;226535;1275;22550;-73
2024/02/18 15:54:23;;;;;;;14.00;9.50;;;;;;;6.92;65.64;100073.16;226568;1270;22555;-73
2024/02/18 15:59:26;;;;;;;15.00;10.10;;;;;;;6.68;65.99;100074.66;226575;1270;24298;-73
2024/02/18 16:04:28;;;;;;;13.00;9.90;;;;;;;6.47;65.95;100078.06;226490;1276;22553;-73
2024/02/18 16:09:30;;;;;;;15.00;10.60;;;;;;;6.25;66.33;100072.55;226606;1276;22563;-74
2024/02/18 16:14:32;;;;;;;14.00;10.10;;;;;;;6.02;66.57;100065.08;226595;1273;25530;-73
2024/02/18 16:19:35;;;;;;;13.20;9.60;;;;;;;5.78;66.82;100060.88;226448;1274;24292;-73
2024/02/18 16:24:38;;;;;;;18.60;11.40;;;;;;;5.55;67.31;100057.70;226560;1270;22660;-73
2024/02/18 16:29:40;;;;;;;21.20;13.20;;;;;;;5.35;67.78;100047.01;226432;1270;22563;-73
2024/02/18 16:34:42;;;;;;;22.50;13.90;;;;;;;5.18;68.35;100040.10;226535;1273;22564;-73
2024/02/18 16:39:46;;;;;;;20.70;13.90;;;;;;;5.02;68.41;100034.81;226457;1274;24403;-74
2024/02/18 16:44:48;;;;;;;20.40;14.00;;;;;;;4.88;68.49;100037.63;226554;1274;22548;-73
2024/02/18 16:49:50;;;;;;;26.40;16.00;;;;;;;4.77;68.70;100036.27;226517;1274;22551;-74
2024/02/18 16:54:53;;;;;;;25.90;16.70;;;;;;;4.66;69.17;100033.25;226482;1272;22559;-74
2024/02/18 16:59:55;;;;;;;31.40;19.80;;;;;;;4.56;69.20;100031.45;226512;1273;22550;-73
2024/02/18 17:05:04;;;;;;;37.20;22.20;;;;;;;4.47;69.53;100026.07;226585;1270;22559;-73
2024/02/18 17:10:07;;;;;;;37.00;23.50;;;;;;;4.34;69.61;100023.35;226474;1272;22565;-73
2024/02/18 17:15:10;;;;;;;51.80;29.90;;;;;;;4.21;70.25;100019.46;226517;1264;22577;-72
2024/02/18 17:20:14;;;;;;;50.10;30.90;;;;;;;4.10;70.49;100009.88;226488;1273;22612;-73
2024/02/18 17:25:18;;;;;;;52.90;30.70;;;;;;;4.02;70.61;100002.52;226585;1270;22546;-73
2024/02/18 17:30:21;;;;;;;47.00;28.00;;;;;;;3.97;70.88;99999.17;226544;1271;24273;-73
2024/02/18 17:35:23;;;;;;;63.00;36.20;;;;;;;3.96;71.15;99979.92;226526;1269;22581;-73
2024/02/18 17:40:25;;;;;;;54.80;31.50;;;;;;;3.93;71.10;99979.48;226466;1273;22562;-73
2024/02/18 17:45:27;;;;;;;48.00;28.40;;;;;;;3.87;71.10;99966.96;226587;1272;22546;-73
2024/02/18 17:50:28;;;;;;;47.90;29.00;;;;;;;3.86;71.28;99954.52;226643;1272;25468;-73
2024/02/18 17:55:31;;;;;;;44.70;28.20;;;;;;;3.95;71.40;99960.63;226580;1269;22546;-73
2024/02/18 18:00:34;;;;;;;44.50;26.60;;;;;;;3.93;71.20;99958.40;226444;1273;22546;-73
2024/02/18 18:05:36;;;;;;;40.30;23.10;;;;;;;3.88;71.23;99954.16;226492;1272;22531;-73
2024/02/18 18:10:38;;;;;;;37.80;20.60;;;;;;;3.86;71.29;99947.41;226534;1268;22574;-73
2024/02/18 18:15:40;;;;;;;34.60;21.60;;;;;;;3.89;71.65;99940.37;226565;1276;22562;-73
2024/02/18 18:20:42;;;;;;;27.10;17.40;;;;;;;3.92;71.42;99930.41;226472;1272;25415;-72
2024/02/18 18:25:44;;;;;;;34.50;20.20;;;;;;;3.90;71.54;99919.38;226489;1273;22550;-74
2024/02/18 18:30:46;;;;;;;52.50;31.20;;;;;;;3.86;71.44;99914.78;226518;1273;22578;-73
2024/02/18 18:35:49;;;;;;;65.80;35.10;;;;;;;3.82;71.44;99899.81;226573;1273;22688;-73
2024/02/18 18:40:52;;;;;;;59.70;31.60;;;;;;;3.76;71.39;99880.88;226529;1273;22567;-73
2024/02/18 18:45:56;;;;;;;53.70;27.40;;;;;;;3.70;71.62;99871.77;226537;1273;22840;-74
2024/02/18 18:50:58;;;;;;;46.60;25.30;;;;;;;3.68;71.75;99865.34;226479;1273;22586;-74
2024/02/18 18:56:00;;;;;;;46.50;25.20;;;;;;;3.66;71.77;99860.13;226580;1271;22579;-73
2024/02/18 19:01:03;;;;;;;34.20;20.30;;;;;;;3.63;71.86;99847.05;226521;1276;22718;-74
2024/02/18 19:06:05;;;;;;;31.40;19.60;;;;;;;3.62;72.08;99841.39;226508;1271;22566;-74
2024/02/18 19:11:11;;;;;;;28.00;18.60;;;;;;;3.65;72.18;99843.64;226489;1272;22566;-74
2024/02/18 19:16:16;;;;;;;31.20;18.70;;;;;;;3.58;72.25;99838.21;226436;1274;22567;-73
2024/02/18 19:21:20;;;;;;;27.70;18.30;;;;;;;3.52;72.26;99824.91;226578;1271;22542;-72
2024/02/18 19:26:23;;;;;;;29.70;18.60;;;;;;;3.47;72.44;99824.06;226440;1273;22679;-73
2024/02/18 19:31:28;;;;;;;27.70;17.00;;;;;;;3.41;72.44;99819.48;226551;1268;23650;-73
2024/02/18 19:36:30;;;;;;;29.60;17.30;;;;;;;3.39;72.61;99813.58;226475;1275;24782;-73
2024/02/18 19:41:39;;;;;;;29.50;17.20;;;;;;;3.38;72.81;99805.83;226508;1273;22587;-73
2024/02/18 19:46:43;;;;;;;26.30;16.90;;;;;;;3.41;73.11;99800.56;226487;1273;22560;-72
2024/02/18 19:51:48;;;;;;;26.90;17.50;;;;;;;3.40;73.03;99806.49;226471;1276;22571;-73
2024/02/18 19:56:50;;;;;;;25.50;16.40;;;;;;;3.37;73.09;99799.77;226560;1270;22567;-72
2024/02/18 20:01:54;;;;;;;26.30;18.00;;;;;;;3.35;73.15;99792.31;226509;1273;22531;-73
2024/02/18 20:06:59;;;;;;;33.60;21.10;;;;;;;3.26;73.20;99786.01;226506;1273;22550;-73
2024/02/18 20:12:03;;;;;;;34.80;20.50;;;;;;;3.18;73.33;99779.66;226530;1271;24913;-73
2024/02/18 20:17:05;;;;;;;35.70;21.20;;;;;;;3.09;73.61;99785.93;226551;1271;22530;-73
2024/02/18 20:22:07;;;;;;;32.20;20.20;;;;;;;2.97;73.71;99778.13;226562;1273;22546;-74
2024/02/18 20:27:10;;;;;;;36.80;22.70;;;;;;;2.85;73.82;99777.30;226535;1270;24296;-73
2024/02/18 20:32:13;;;;;;;36.60;21.90;;;;;;;2.75;74.19;99770.92;226591;1268;24260;-73
2024/02/18 20:37:15;;;;;;;33.40;22.00;;;;;;;2.71;74.53;99767.01;226509;1271;22542;-73
2024/02/18 20:42:17;;;;;;;32.50;19.60;;;;;;;2.66;74.49;99763.96;226469;1276;22570;-75
2024/02/18 20:47:18;;;;;;;37.80;21.00;;;;;;;2.56;74.68;99759.09;226589;1270;22550;-73
2024/02/18 20:52:21;;;;;;;32.30;21.40;;;;;;;2.50;74.75;99759.36;226548;1271;24338;-73
2024/02/18 20:57:28;;;;;;;34.30;23.10;;;;;;;2.50;75.22;99749.98;226539;1268;22924;-73
2024/02/18 21:02:30;;;;;;;32.90;22.00;;;;;;;2.47;75.18;99749.02;226540;1272;25361;-74
2024/02/18 21:07:32;;;;;;;35.80;21.20;;;;;;;2.39;75.25;99745.23;226584;1276;22550;-74
2024/02/18 21:12:34;;;;;;;34.90;22.20;;;;;;;2.34;75.37;99735.88;226476;1271;22549;-73
2024/02/18 21:17:36;;;;;;;34.50;21.90;;;;;;;2.33;75.61;99731.80;226571;1271;22546;-73
2024/02/18 21:22:38;;;;;;;34.90;21.80;;;;;;;2.28;75.64;99731.94;226551;1273;22551;-74
2024/02/18 21:27:40;;;;;;;35.20;22.50;;;;;;;2.21;75.68;99729.20;226623;1273;24198;-74
2024/02/18 21:32:42;;;;;;;38.00;24.30;;;;;;;2.11;75.54;99723.33;226623;1269;22706;-73
2024/02/18 21:37:45;;;;;;;33.70;22.00;;;;;;;2.01;75.91;99721.10;226515;1272;22611;-73
2024/02/18 21:42:48;;;;;;;36.00;23.10;;;;;;;1.90;76.05;99718.04;226529;1268;22838;-72
2024/02/18 21:47:50;;;;;;;38.20;23.20;;;;;;;1.82;76.23;99717.81;226503;1274;22597;-72
2024/02/18 21:52:55;;;;;;;39.90;24.40;;;;;;;1.74;76.42;99714.48;226543;1268;23024;-73
2024/02/18 21:57:57;;;;;;;39.50;23.80;;;;;;;1.65;76.51;99705.59;226579;1268;22542;-73
2024/02/18 22:02:59;;;;;;;36.40;23.30;;;;;;;1.54;76.55;99701.20;226578;1273;22571;-72
2024/02/18 22:08:05;;;;;;;41.90;25.00;;;;;;;1.46;76.99;99695.34;226612;1276;22529;-73
2024/02/18 22:13:07;;;;;;;40.10;25.90;;;;;;;1.42;77.21;99687.84;226566;1272;22542;-72
2024/02/18 22:18:10;;;;;;;45.80;26.90;;;;;;;1.35;77.19;99681.52;226596;1270;22539;-73
2024/02/18 22:23:12;;;;;;;44.80;28.10;;;;;;;1.32;77.37;99682.98;226556;1272;22677;-74
2024/02/18 22:28:14;;;;;;;47.20;28.10;;;;;;;1.24;77.52;99681.64;226596;1273;22551;-73
2024/02/18 22:33:16;;;;;;;48.50;27.70;;;;;;;1.15;77.51;99681.38;226575;1271;25324;-73
2024/02/18 22:38:18;;;;;;;45.50;27.00;;;;;;;1.09;77.71;99679.73;226577;1273;22618;-73
2024/02/18 22:43:22;;;;;;;46.20;29.60;;;;;;;1.01;77.79;99678.70;226524;1270;22553;-73
2024/02/18 22:48:24;;;;;;;49.00;29.30;;;;;;;0.93;77.62;99668.69;226581;1268;22563;-73
2024/02/18 22:53:26;;;;;;;47.40;28.60;;;;;;;0.86;78.24;99666.20;226591;1272;22546;-73
2024/02/18 22:58:28;;;;;;;55.40;32.10;;;;;;;0.80;78.27;99657.77;226460;1258;22566;-72
2024/02/18 23:03:30;;;;;;;50.20;30.50;;;;;;;0.75;78.16;99653.95;226462;1274;22546;-73
2024/02/18 23:08:32;;;;;;;50.90;30.70;;;;;;;0.73;78.32;99651.90;226624;1269;22543;-73
2024/02/18 23:13:34;;;;;;;51.30;30.10;;;;;;;0.72;78.70;99654.73;226512;1273;22568;-73